createdAt,value
2023-06-09T09:56:03.067Z,25.50
2023-06-09T09:58:39.261Z,25.50
2023-06-09T10:01:09.682Z,25.70
2023-06-09T10:03:45.246Z,25.90
2023-06-09T10:06:15.588Z,25.90
2023-06-09T10:08:45.981Z,26.10
2023-06-09T10:11:14.160Z,26.10
2023-06-09T10:16:30.215Z,26.10
2023-06-09T10:19:00.227Z,26.20
2023-06-09T10:21:27.660Z,26.10
2023-06-09T10:23:55.393Z,26.20
2023-06-09T10:26:23.519Z,26.30
2023-06-09T10:29:02.016Z,26.40
2023-06-09T10:31:36.354Z,26.30
2023-06-09T10:34:21.019Z,26.40
2023-06-09T10:36:48.226Z,26.30
2023-06-09T10:39:29.757Z,26.40
2023-06-09T10:42:22.378Z,26.60
2023-06-09T10:45:04.328Z,26.60
2023-06-09T10:47:48.972Z,26.60
2023-06-09T10:53:21.861Z,26.60
2023-06-09T10:55:49.113Z,26.70
2023-06-09T10:58:38.406Z,26.80
2023-06-09T11:01:08.889Z,27.00
2023-06-09T11:03:56.625Z,27.10
2023-06-09T11:06:24.128Z,27.20
2023-06-09T11:09:22.970Z,27.00
2023-06-09T11:11:51.787Z,27.00
2023-06-09T11:15:01.846Z,27.10
2023-06-09T11:17:41.613Z,27.20
2023-06-09T11:21:14.805Z,27.30
2023-06-09T11:26:43.278Z,27.20
2023-06-09T11:29:18.912Z,27.00
2023-06-09T11:31:49.787Z,26.90
2023-06-09T11:34:49.383Z,26.80
2023-06-09T11:37:18.185Z,26.70
2023-06-09T11:39:45.276Z,26.70
2023-06-09T11:42:12.198Z,26.70
2023-06-09T11:44:39.084Z,26.60
2023-06-09T11:47:26.769Z,26.40
2023-06-09T11:50:00.481Z,26.30
2023-06-09T11:52:27.367Z,26.30
2023-06-09T11:54:54.318Z,26.30
2023-06-09T11:57:22.845Z,26.40
2023-06-09T11:59:49.931Z,26.40
2023-06-09T12:02:18.082Z,26.50
2023-06-09T12:04:46.910Z,26.40
2023-06-09T12:07:16.085Z,26.40
2023-06-09T12:09:43.897Z,26.30
2023-06-09T12:12:14.033Z,26.50
2023-06-09T12:14:44.177Z,26.60
2023-06-09T12:17:11.216Z,26.50
2023-06-09T12:19:38.162Z,26.40
2023-06-09T12:22:05.516Z,26.30
2023-06-09T12:24:32.877Z,26.30
2023-06-09T12:27:11.482Z,26.30
2023-06-09T12:29:42.325Z,26.20
2023-06-09T12:32:10.611Z,26.10
2023-06-09T12:34:37.877Z,26.10
2023-06-09T12:37:05.876Z,26.00
2023-06-09T12:39:34.210Z,26.00
2023-06-09T12:42:14.114Z,26.00
2023-06-09T12:44:41.270Z,25.90
2023-06-09T12:47:15.844Z,25.80
2023-06-09T12:49:44.780Z,25.90
2023-06-09T12:52:11.771Z,25.90
2023-06-09T12:54:38.856Z,25.90
2023-06-09T18:56:48.589Z,16.90
2023-06-09T18:59:16.076Z,16.80
2023-06-09T19:01:43.389Z,16.70
2023-06-09T19:04:11.211Z,16.70
2023-06-09T19:06:43.920Z,16.60
2023-06-09T19:09:10.827Z,16.50
2023-06-09T19:11:38.028Z,16.50
2023-06-09T19:14:08.057Z,16.40
2023-06-09T19:16:37.943Z,16.30
2023-06-09T19:19:05.295Z,16.30
2023-06-09T19:21:32.158Z,16.20
2023-06-09T19:23:59.317Z,16.10
2023-06-09T19:26:27.058Z,16.10
2023-06-09T19:29:00.152Z,16.00
2023-06-09T19:31:27.114Z,16.00
2023-06-09T19:33:54.174Z,15.90
2023-06-09T19:36:21.050Z,15.90
2023-06-09T19:38:47.895Z,15.80
2023-06-09T19:41:14.778Z,15.70
2023-06-09T19:43:41.721Z,15.70
2023-06-09T19:46:08.839Z,15.70
2023-06-09T19:48:35.722Z,15.60
2023-06-09T19:51:02.877Z,15.50
2023-06-09T19:53:29.766Z,15.40
2023-06-09T19:55:56.663Z,15.40
2023-06-09T19:58:23.577Z,15.30
2023-06-09T20:00:50.584Z,15.20
2023-06-09T20:03:22.040Z,15.20
2023-06-09T20:05:49.154Z,15.10
2023-06-09T20:08:16.015Z,15.00
2023-06-09T20:10:49.033Z,15.00
2023-06-09T20:13:16.959Z,14.90
2023-06-09T20:18:28.666Z,14.80
2023-06-09T20:21:00.758Z,14.80
2023-06-09T20:26:54.951Z,14.70
2023-06-09T20:29:21.970Z,14.70
2023-06-09T20:35:41.106Z,14.60
2023-06-09T20:38:17.721Z,14.60
2023-06-09T20:40:45.915Z,14.50
2023-06-09T20:43:18.716Z,14.50
2023-06-09T20:45:48.816Z,14.50
2023-06-09T20:48:20.027Z,14.50
2023-06-09T20:50:47.132Z,14.40
2023-06-09T20:53:17.146Z,14.40
2023-06-09T23:15:12.496Z,13.20
2023-06-09T23:17:41.039Z,13.20
2023-06-09T23:20:10.640Z,13.20
2023-06-09T23:22:44.315Z,13.20
2023-06-09T23:25:13.095Z,13.20
2023-06-09T23:27:42.686Z,13.20
2023-06-09T23:30:11.668Z,13.20
2023-06-09T23:32:39.816Z,13.20
2023-06-09T23:35:08.060Z,13.20
2023-06-09T23:37:38.026Z,13.20
2023-06-09T23:40:11.220Z,13.20
2023-06-09T23:42:39.689Z,13.20
2023-06-09T23:45:07.793Z,13.20
2023-06-09T23:47:36.674Z,13.20
2023-06-09T23:50:04.452Z,13.10
2023-06-09T23:52:33.447Z,13.10
2023-06-09T23:55:00.613Z,13.10
2023-06-09T23:57:27.536Z,13.10
2023-06-09T23:59:55.758Z,13.10
